< < Back
Terminal Aerodrome Forecast


Current Version              Previous Versions:   1  2  3  4  5  6  7  8  9  

Terminal Aerodrome Forecast

877
FTUS44 KOHX 201700
TAFBNA
TAF
KBNA 201720Z 2018/2118 17010KT P6SM SCT050
     FM210000 22004KT P6SM SCT200
     FM211400 27008G15KT P6SM VCSH BKN035=

Latest METAR

789
SAUS70 KWBC 202000 RRC
MTRBNA
METAR KBNA 201953Z VRB05KT 10SM FEW050 SCT070 BKN090 31/18 A3004 RMK AO2
SLP165 T03060178


USA.gov is the U.S. government's official web portal to all federal, state and local government web resources and services.